Boston Beer Company Inc-A (SAM) Latest Bloomsberg Price


Mffais Ranking #402 Overall / #5 Industry
Industry: Beverages

Number of Companies: 155 (Ranking #1111 Overall/#9 Industry)
Inflow: $ 82,616 (K) (Ranking #1064 Overall/#11 Industry)
Outflow: $ -66,028 (K)
Mffais Flow: $ 16,588 (K) (Ranking #402 Overall/#5 Industry)


Receive a FREE weekly executive review of stocks moving into the top 10, taking the top industy spot or moving up within their industry. Sent directly to your Inbox every Saturday. Sign up today and get last week's review immediately sent to you.

We value and respect your privacy. Please read our Terms and Conditions which states our firm commitment to your privacy. Your email address will not be shared with a third party, nor will it be sold or used for purposes other than subscription for the weekly review.

Owner CPOR Shares Action Qty Chg Invested (K) Total Current Value (K)
Fiera Capital Corp 2016-09-30 237,662 Added More 171,494 $ 31,151 $ 43,171
Perkins Investment Management Llc 2016-09-30 161,942 Added More 50,270 $ 9,131 $ 29,416
Peak6 Investments L P 2016-09-30 80,808 Added More 33,708 $ 6,123 $ 14,678
Broadview Advisors Llc 2016-09-30 23,300 New Holding 23,300 $ 4,232 $ 4,232
Brandywine Global Investment Management Llc 2016-09-30 51,868 Added More 21,155 $ 3,842 $ 9,421
Hutchin Hill Capital Lp 2016-09-30 20,000 New Holding 20,000 $ 3,633 $ 3,633
Davenport Co Llc 2016-09-30 69,455 Added More 19,320 $ 3,509 $ 12,616
New York State Common Retirement Fund 2016-09-30 28,674 Added More 19,274 $ 3,501 $ 5,208
Cornerstone Capital Management Holdings Llc 2016-09-30 11,100 New Holding 11,100 $ 2,016 $ 2,016
Dimensional Fund Advisors Lp 2016-09-30 182,569 Added More 9,812 $ 1,782 $ 33,163
Blackrock Investment Management Llc 2016-09-30 66,179 Added More 9,615 $ 1,746 $ 12,021
Global Alpha Capital Management Ltd 2016-09-30 26,575 Added More 8,075 $ 1,466 $ 4,827
Jacobs Levy Equity Management Inc 2016-09-30 7,070 New Holding 7,070 $ 1,284 $ 1,284
Integral Derivatives Llc 2016-09-30 5,000 New Holding 5,000 $ 908 $ 908
Two Sigma Securities Llc 2016-09-30 3,855 New Holding 3,855 $ 700 $ 700
Alambic Investment Management L P 2016-09-30 3,390 New Holding 3,390 $ 615 $ 615
Bayesian Capital Management Lp 2016-09-30 2,944 New Holding 2,944 $ 534 $ 534
Fisher Asset Management Llc 2016-09-30 348,515 Added More 2,842 $ 516 $ 63,307
Bessemer Group Inc 2016-09-30 2,800 New Holding 2,800 $ 508 $ 508
Stifel Financial Corp 2016-09-30 2,789 New Holding 2,789 $ 506 $ 506
Parametric Portfolio Associates Llc 2016-09-30 28,015 Added More 2,765 $ 502 $ 5,088
Martingale Asset Management L P 2016-09-30 3,849 Added More 2,654 $ 482 $ 699
Oppenheimer Co Inc 2016-09-30 2,177 New Holding 2,177 $ 395 $ 395
Pnc Financial Services Group Inc 2016-09-30 77,255 Added More 1,994 $ 362 $ 14,033
Pacad Investment Ltd 2016-09-30 3,200 Added More 1,900 $ 345 $ 581
Marshall Wace Llp 2016-09-30 1,712 New Holding 1,712 $ 310 $ 310
Gotham Asset Management Llc 2016-09-30 1,686 New Holding 1,686 $ 306 $ 306
Commerzbank Aktiengesellschaft Fi 2016-09-30 1,493 New Holding 1,493 $ 271 $ 271
Blair William Co Il 2016-09-30 1,388 New Holding 1,388 $ 252 $ 252
Blackrock Inc 2016-09-30 5,168 Added More 1,349 $ 245 $ 938
Cantab Capital Partners Llp 2016-09-30 765 New Holding 765 $ 138 $ 138
Envestnet Asset Management Inc 2016-09-30 2,545 Added More 758 $ 137 $ 462
Rhumbline Advisers 2016-09-30 19,730 Added More 616 $ 111 $ 3,583
Northern Trust Corp 2016-09-30 140,139 Added More 567 $ 102 $ 25,456
Btim Corp 2016-09-30 101,154 Added More 519 $ 94 $ 18,374
Algert Global Llc 2016-09-30 4,122 Added More 490 $ 89 $ 748
Creative Planning 2016-09-30 1,304 Added More 462 $ 83 $ 236
Aperio Group Llc 2016-09-30 2,872 Added More 428 $ 77 $ 521
Us Bancorp De 2016-09-30 502 Added More 345 $ 62 $ 91
Gamco Investors Inc Et Al 2016-09-30 25,153 Added More 300 $ 54 $ 4,569
Ifp Advisors Inc 2016-09-30 412 Added More 245 $ 44 $ 74
Morningstar Investment Services Llc 2016-09-30 1,720 Added More 202 $ 36 $ 312
Acrospire Investment Management Llc 2016-09-30 400 Added More 200 $ 36 $ 72
Cutler Group Lp 2016-09-30 400 Added More 200 $ 36 $ 72
California State Teachers Retirement System 2016-09-30 18,703 Added More 200 $ 36 $ 3,397
Curbstone Financial Management Corp 2016-09-30 3,200 Added More 160 $ 29 $ 581
Raymond James Associates 2016-09-30 2,040 Added More 148 $ 26 $ 370
Legal General Group Plc 2016-09-30 2,373 Added More 143 $ 25 $ 431
Cornerstone Advisors Inc 2016-09-30 133 New Holding 133 $ 24 $ 24
Salem Investment Counselors Inc 2016-09-30 100 New Holding 100 $ 18 $ 18
Thrivent Financial For Lutherans 2016-09-30 1,420 Added More 100 $ 18 $ 257
Loring Wolcott Coolidge Fiduciary Advisors Llp Ma 2016-09-30 1,805 Added More 100 $ 18 $ 327
Next Financial Group Inc 2016-09-30 279 Added More 95 $ 17 $ 50
Cim Investment Mangement Inc 2016-09-30 2,128 Added More 80 $ 14 $ 386
Mutual Of America Capital Management Llc 2016-09-30 6,904 Added More 68 $ 12 $ 1,254
Oregon Public Employees Retirement Fund 2016-09-30 3,264 Added More 64 $ 11 $ 592
Finemark National Bank Trust 2016-09-30 57 Added More 52 $ 9 $ 10
Cwm Llc 2016-09-30 47 New Holding 47 $ 8 $ 8
Horizon Kinetics Llc 2016-09-30 2,714 Added More 44 $ 7 $ 492
Zurcher Kantonalbank Zurich Cantonalbank 2016-09-30 252 Added More 40 $ 7 $ 45
Teachers Advisors Inc 2016-09-30 14,027 Added More 39 $ 7 $ 2,548
Liberty Mutual Group Asset Management Inc 2016-09-30 4,147 Added More 38 $ 6 $ 753
Msi Financial Services Inc 2016-09-30 294 Added More 30 $ 5 $ 53
Ftb Advisors Inc 2016-09-30 28 New Holding 28 $ 5 $ 5
Ls Investment Advisors Llc 2016-09-30 582 Added More 27 $ 4 $ 105
Northwestern Mutual Wealth Management Co 2016-09-30 508 Added More 15 $ 2 $ 92
Financial Architects Inc 2016-09-30 16 Added More 14 $ 2 $ 2
Raymond James Financial Services Advisors Inc 2016-09-30 1,356 Added More 9 $ 1 $ 246
Washington Trust Bank 2016-09-30 6 New Holding 6 $ 1 $ 1
Gemmer Asset Management Llc 2016-09-30 20 Added More 5 $ 0 $ 3
Commonwealth Equity Services Inc 2016-09-30 1,386 Added More 1 $ 0 $ 251
Gabelli Funds Llc 2016-09-30 25,000 No Change 0 $ 0 $ 4,541
Usa Mutuals Advisors Inc 2016-09-30 10,000 No Change 0 $ 0 $ 1,816
Teton Advisors Inc 2016-09-30 8,500 No Change 0 $ 0 $ 1,544
Jasper Ridge Partners L P 2016-09-30 15,205 No Change 0 $ 0 $ 2,761
Manikay Partners Llc 2016-09-30 210,000 No Change 0 $ 0 $ 38,146
First National Bank Sioux Falls 2016-09-30 114 No Change 0 $ 0 $ 20
Thompson Davis Co Inc 2016-09-30 10 No Change 0 $ 0 $ 1
State Of New Jersey Common Pension Fund D 2016-09-30 41,500 No Change 0 $ 0 $ 7,538
Montage Investments Llc 2016-09-30 2,000 No Change 0 $ 0 $ 363
Qs Investors Llc 2016-09-30 2 No Change 0 $ 0 $ 0
Putnam Fl Investment Management Co 2016-09-30 1,372 No Change 0 $ 0 $ 249
Motley Fool Asset Management Llc 2016-09-30 39,840 No Change 0 $ 0 $ 7,236
Advisors Asset Management Inc 2016-09-30 200 No Change 0 $ 0 $ 36
Nisa Investment Advisors Llc 2016-09-30 3,100 No Change 0 $ 0 $ 563
Capital Impact Advisors Llc 2016-09-30 5,103 No Change 0 $ 0 $ 926
Panagora Asset Management Inc 2016-09-30 30 No Change 0 $ 0 $ 5
Texas Yale Capital Corp 2016-09-30 2,907 No Change 0 $ 0 $ 528
Profit Investment Management Llc 2016-09-30 6,749 No Change 0 $ 0 $ 1,225
Bartlett Co Llc 2016-09-30 33 No Change 0 $ 0 $ 5
Teachers Retirement System Of The State Of Kentucky 2016-09-30 2,000 No Change 0 $ 0 $ 363
Hanson Mcclain Inc 2016-06-30 450 No Change 0 $ 0 $ 76
New York State Teachers Retirement System 2016-09-30 17,477 No Change 0 $ 0 $ 3,174
Advisory Services Network Llc 2016-09-30 61 No Change 0 $ 0 $ 11
Massmutual Trust Co Fsb Adv 2016-06-30 0 New Holding 0 $ 0 $ 0
Quadrant Capital Group Llc 2016-09-30 39 No Change 0 $ 0 $ 7
Eaton Vance Management 2016-09-30 3,230 No Change 0 $ 0 $ 586
Advantus Capital Management Inc 2016-09-30 1,130 No Change 0 $ 0 $ 205
Sonora Investment Management Llc 2016-09-30 75 No Change 0 $ 0 $ 13
Sevenbridge Financial Group Llc 2016-09-30 13 No Change 0 $ 0 $ 2
Ladenburg Thalmann Financial Services Inc 2016-09-30 602 Sold Some -2 $ -0 $ 109
Advisor Group Inc 2016-09-30 1,164 Sold Some -13 $ -2 $ 211
Weaver C Barksdale Associates Inc 2016-09-30 28 Sold Some -15 $ -2 $ 5
Farmers Merchants Investments Inc 2016-09-30 43 Sold Some -20 $ -3 $ 7
Bangor Savings Bank 2016-09-30 8,866 Sold Some -25 $ -4 $ 1,610
Gradient Investments Llc 2016-09-30 0 Sold All -30 $ -5 $ 0
Fifth Third Bancorp 2016-09-30 5,435 Sold Some -40 $ -7 $ 987
Northwestern Mutual Investment Management Company Llc 2016-09-30 1,559 Sold Some -53 $ -9 $ 283
Valley National Advisers Inc 2016-09-30 57 Sold Some -61 $ -11 $ 10
Comerica Bank 2016-09-30 4,917 Sold Some -64 $ -11 $ 893
Mason Street Advisors Llc 2016-09-30 4,190 Sold Some -68 $ -12 $ 761
State Treasurer State Of Michigan 2016-09-30 3,600 Sold Some -100 $ -18 $ 653
Arizona State Retirement System 2016-09-30 3,916 Sold Some -100 $ -18 $ 711
Meeder Asset Management Inc 2016-09-30 0 Sold All -131 $ -23 $ 0
Clearbridge Llc 2016-09-30 790 Sold Some -190 $ -34 $ 143
Alps Advisors Inc 2016-09-30 2,612 Sold Some -196 $ -35 $ 474
Texas Permanent School Fund 2016-09-30 6,899 Sold Some -240 $ -43 $ 1,253
Jensen Investment Management Inc 2016-09-30 2,500 Sold Some -240 $ -43 $ 454
Proshare Advisors Llc 2016-09-30 1,573 Sold Some -279 $ -50 $ 285
Sei Investments Co 2016-09-30 51 Sold Some -288 $ -52 $ 9
American International Group Inc 2016-09-30 22,306 Sold Some -548 $ -99 $ 4,051
Tybourne Capital Management Hk Ltd 2016-09-30 911,613 Sold Some -600 $ -108 $ 165,594
Sg Americas Securities Llc 2016-09-30 2,144 Sold Some -603 $ -109 $ 389
Guggenheim Capital Llc 2016-09-30 17,139 Sold Some -693 $ -125 $ 3,113
Swiss National Bank 2016-09-30 14,900 Sold Some -700 $ -127 $ 2,706
Wesbanco Bank Inc 2016-09-30 8,068 Sold Some -800 $ -145 $ 1,465
Nationwide Fund Advisors 2016-09-30 21,030 Sold Some -803 $ -145 $ 3,820
Tower Research Capital Llc Trc 2016-09-30 106 Sold Some -859 $ -156 $ 19
Invictus Rg 2016-09-30 801 Sold Some -878 $ -159 $ 145
Strs Ohio 2016-09-30 25,000 Sold Some -1,000 $ -181 $ 4,541
Rk Asset Management Llc 2016-09-30 30,445 Sold Some -1,143 $ -207 $ 5,530
Capital Fund Management S A 2016-09-30 0 Sold All -1,200 $ -217 $ 0
Teacher Retirement System Of Texas 2016-09-30 0 Sold All -1,267 $ -230 $ 0
Diversified Trust Co 2016-09-30 0 Sold All -1,275 $ -231 $ 0
1st Global Advisors Inc 2016-09-30 0 Sold All -1,704 $ -309 $ 0
Cim Llc 2016-09-30 0 Sold All -1,868 $ -339 $ 0
Highbridge Capital Management Llc 2016-09-30 0 Sold All -2,600 $ -472 $ 0
Geneva Advisors Llc 2016-09-30 0 Sold All -3,732 $ -677 $ 0
Kcg Holdings Inc 2016-09-30 0 Sold All -4,260 $ -773 $ 0
Champlain Investment Partners Llc 2016-09-30 280,272 Sold Some -4,350 $ -790 $ 50,911
Dillon Associates Inc 2016-09-30 0 Sold All -6,450 $ -1,171 $ 0
River Road Asset Management Llc 2016-09-30 2,914 Sold Some -6,733 $ -1,223 $ 529
Eulav Asset Management 2016-09-30 25,300 Sold Some -7,932 $ -1,440 $ 4,595
Usa Financial Portformulas Corp 2016-09-30 0 Sold All -8,050 $ -1,462 $ 0
Emerald Acquisition Ltd 2016-09-30 2,570 Sold Some -8,439 $ -1,532 $ 466
Kbc Group Nv 2016-09-30 11,664 Sold Some -8,703 $ -1,580 $ 2,118
Americafirst Capital Management Llc 2016-09-30 0 Sold All -9,669 $ -1,756 $ 0
Palo Capital Inc 2016-09-30 8,678 Sold Some -9,932 $ -1,804 $ 1,576
Walleye Trading Llc 2016-09-30 1,850 Sold Some -10,144 $ -1,842 $ 336
Columbia Partners L L C Investment Management 2016-09-30 12,999 Sold Some -15,924 $ -2,892 $ 2,361
Retirement Systems Of Alabama 2016-09-30 44,041 Sold Some -16,802 $ -3,052 $ 8,000
Nepsis Capital Management Inc 2016-09-30 0 Sold All -22,460 $ -4,079 $ 0
Kornitzer Capital Management Inc Ks 2016-09-30 18,835 Sold Some -37,455 $ -6,803 $ 3,421
Ahl Partners Llp 2016-09-30 0 Sold All -46,535 $ -8,453 $ 0
Arrowpoint Asset Management Llc 2016-09-30 0 Sold All -115,229 $ -20,931 $ 0